Latest Weather Observations for Mount Hotham

IDV60801

Issued at 4:42 pm EDT Thursday 12 December 2019 (issued every 10 minutes, with the page automatically refreshed every 10 minutes)

About weather observations | Map of weather stations | Latest weather observations for VIC | Other Formats
Station Details ID: 083085 Name: MOUNT HOTHAM Lat: -36.98 Lon: 147.13 Height: 1849.0 m
Data from the previous 72 hours. | See also: Recent months at Mount Hotham
Date/Time
EDT
Temp
°C
App
Temp
°C
Dew
Point
°C
Rel
Hum
%
Delta-T
°C
Wind Press
QNH
hPa
Press
MSL
hPa
Rain since
9am
mm
Dir  Spd
km/h
Gust
km/h
Spd
kts
Gust
kts
12/04:30pm 14.0 10.2 1.6 43 6.0 WSW 11 24 6 13 - - -
12/04:00pm 14.0 11.1 1.6 43 6.0 WSW 6 17 3 9 - - -
12/03:30pm 13.8 10.0 1.8 44 5.8 WNW 11 26 6 14 - - -
12/03:00pm 12.9 9.4 3.3 52 4.8 NW 11 19 6 10 - - -
12/02:30pm 12.8 9.1 2.4 49 5.1 NW 11 24 6 13 - - -
12/02:00pm 12.9 8.9 2.7 50 5.0 WNW 13 28 7 15 - - -
12/01:30pm 11.8 8.4 2.0 51 4.7 W 9 24 5 13 - - -
12/01:00pm 11.4 7.5 1.1 49 4.8 W 11 20 6 11 - - -
12/12:30pm 11.6 7.7 1.3 49 4.8 WNW 11 19 6 10 - - -
12/12:00pm 11.3 8.6 3.6 59 3.8 WNW 7 15 4 8 - - -
12/11:30am 9.6 5.8 1.5 57 3.8 W 11 20 6 11 - - -
12/11:00am 10.0 6.9 1.1 54 4.1 WNW 7 19 4 10 - - -
12/10:30am 10.2 7.1 1.6 55 4.0 WSW 7 17 4 9 - - -
12/10:00am 9.7 6.0 0.1 51 4.3 WNW 9 17 5 9 - - -
12/09:30am 9.2 5.5 -0.1 52 4.2 NNW 9 13 5 7 - - -
12/09:00am 7.4 3.5 1.3 65 2.8 SSE 11 17 6 9 - - -
12/08:30am 7.2 3.6 0.9 64 2.8 S 9 17 5 9 - - -
12/08:00am 6.8 2.9 1.3 68 2.5 SSE 11 15 6 8 - - -
12/07:30am 6.3 2.0 0.8 68 2.4 SSE 13 17 7 9 - - -
12/07:00am 6.6 3.0 0.9 67 2.5 SE 9 9 5 5 - - -
12/06:30am 5.8 1.8 0.6 69 2.3 SE 11 17 6 9 - - -
12/06:00am 5.2 0.0 0.2 70 2.2 SSE 17 22 9 12 - - -
12/05:30am 4.8 -1.8 -0.4 69 2.2 SSE 24 32 13 17 - - -
12/05:00am 5.2 -1.8 -0.2 68 2.3 SSE 26 35 14 19 - - -
12/04:30am 4.8 -2.6 -0.8 67 2.4 SSE 28 39 15 21 - - -
12/04:00am 4.3 -3.8 -0.3 72 2.0 SSE 32 39 17 21 - - -
12/03:30am 5.1 -3.0 -0.5 67 2.4 SSE 32 37 17 20 - - -
12/03:00am 4.3 -2.5 1.0 79 1.4 SSE 26 33 14 18 - - -
12/02:30am 2.4 -4.2 2.1 98 0.1 SE 26 33 14 18 - - -
12/02:00am 2.5 -5.2 2.2 98 0.1 SE 32 43 17 23 - - -
12/01:30am 3.4 -4.5 0.8 83 1.1 SSE 32 41 17 22 - - -
12/01:00am 3.9 -3.4 -0.1 75 1.7 SSE 28 37 15 20 - - -
12/12:30am 3.0 -2.4 2.6 97 0.2 SSE 20 28 11 15 - - -
12/12:00am 3.7 -2.1 2.2 90 0.7 SSE 22 26 12 14 - - -
 
Date/Time
EDT
Temp
°C
App
Temp
°C
Dew
Point
°C
Rel
Hum
%
Delta-T
°C
Wind Press
QNH
hPa
Press
MSL
hPa
Rain since
9am
mm
Dir  Spd
km/h
Gust
km/h
Spd
kts
Gust
kts
11/11:30pm 4.6 -1.9 0.6 75 1.7 SSE 24 32 13 17 - - -
11/11:00pm 4.6 -1.9 0.6 75 1.7 SSE 24 32 13 17 - - -
11/10:30pm 4.1 -1.2 3.1 93 0.5 SSE 20 28 11 15 - - -
11/10:00pm 4.6 -0.3 4.0 96 0.3 SSE 19 24 10 13 - - -
11/09:30pm 4.8 0.4 4.7 99 0.0 SSE 17 24 9 13 - - -
11/09:00pm 5.2 0.4 4.9 98 0.1 S 19 22 10 12 - - -
11/08:30pm 5.9 1.0 5.0 94 0.4 SSE 20 26 11 14 - - -
11/08:00pm 7.2 2.5 6.0 92 0.6 SSE 20 24 11 13 - - -
11/07:30pm 8.6 4.0 6.7 88 1.0 SSE 20 24 11 13 - - -
11/07:00pm 10.2 6.0 7.6 84 1.4 SSE 19 24 10 13 - - -
11/06:30pm 10.5 6.8 8.1 85 1.3 S 17 24 9 13 - - -
11/06:00pm 11.0 8.1 8.1 82 1.6 SSE 13 19 7 10 - - -
11/05:30pm 11.7 7.9 7.6 76 2.2 SSE 17 26 9 14 - - -
11/05:00pm 13.8 10.9 6.7 62 3.8 SW 11 20 6 11 - - -
11/04:30pm 15.3 12.3 6.1 54 4.9 NW 11 22 6 12 - - -
11/04:00pm 15.1 11.6 5.6 53 5.0 WSW 13 26 7 14 - - -
11/03:30pm 15.7 12.1 5.0 49 5.6 W 13 24 7 13 - - -
11/03:00pm 14.5 10.4 6.1 57 4.5 WNW 17 30 9 16 - - -
11/02:30pm 14.0 10.1 7.3 64 3.6 WNW 17 30 9 16 - - -
11/02:00pm 13.6 9.9 6.5 62 3.8 NW 15 28 8 15 - - -
11/01:30pm 13.9 10.3 6.7 62 3.9 NW 15 28 8 15 - - -
11/01:00pm 13.3 8.8 6.9 65 3.4 NNW 20 33 11 18 - - -
11/12:30pm 14.1 10.7 7.6 65 3.5 NW 15 28 8 15 - - -
11/12:00pm 13.2 9.2 5.1 58 4.2 NW 15 30 8 16 - - -
11/11:30am 13.0 9.1 7.0 67 3.2 NNW 17 28 9 15 - - -
11/11:00am 11.7 7.3 6.4 70 2.8 N 19 30 10 16 - - -
11/10:30am 11.1 6.5 6.6 74 2.4 NNW 20 30 11 16 - - -
11/10:00am 12.0 7.6 6.7 70 2.8 NNW 19 26 10 14 - - -
11/09:30am 11.2 6.6 5.5 68 2.9 NNW 19 26 10 14 - - -
11/09:00am 11.4 7.1 3.4 58 3.9 NNW 15 20 8 11 - - -
11/08:30am 10.2 5.8 4.8 69 2.7 N 17 22 9 12 - - -
11/08:00am 10.0 5.7 5.4 73 2.3 NNW 17 22 9 12 - - -
11/07:30am 10.2 6.5 4.6 68 2.8 NNW 13 19 7 10 - - -
11/07:00am 9.7 6.3 4.1 68 2.8 NNW 11 15 6 8 - - -
11/06:30am 9.1 5.4 4.3 72 2.4 NNW 13 17 7 9 - - -
11/06:00am 8.6 4.4 4.0 73 2.2 NNW 15 17 8 9 - - -
11/05:30am 8.5 4.3 3.8 72 2.3 NNW 15 17 8 9 - - -
11/05:00am 8.9 4.6 3.3 68 2.7 NNW 15 17 8 9 - - -
11/04:30am 9.4 5.5 3.4 66 2.9 NNW 13 17 7 9 - - -
11/04:00am 9.4 5.4 2.7 63 3.2 NNW 13 17 7 9 - - -
11/03:30am 9.9 5.5 2.7 61 3.4 NNW 15 19 8 10 - - -
11/03:00am 10.4 6.1 3.0 60 3.6 NNW 15 17 8 9 - - -
11/02:30am 10.4 6.3 2.3 57 3.9 NNW 13 19 7 10 - - -
11/02:00am 11.0 6.4 1.8 53 4.4 NNW 15 19 8 10 - - -
11/01:30am 11.1 6.2 2.2 54 4.3 NNW 17 20 9 11 - - -
11/01:00am 10.9 6.8 2.2 55 4.2 N 13 13 7 7 - - -
11/12:30am 11.2 7.3 3.3 58 3.9 NNW 13 15 7 8 - - -
11/12:00am 11.8 8.6 3.1 55 4.3 N 9 11 5 6 - - -
 
Date/Time
EDT
Temp
°C
App
Temp
°C
Dew
Point
°C
Rel
Hum
%
Delta-T
°C
Wind Press
QNH
hPa
Press
MSL
hPa
Rain since
9am
mm
Dir  Spd
km/h
Gust
km/h
Spd
kts
Gust
kts
10/11:30pm 11.8 8.7 3.6 57 4.1 N 9 13 5 7 - - -
10/11:00pm 11.2 8.9 5.5 68 2.9 N 7 9 4 5 - - -
10/10:30pm 11.9 9.3 6.0 67 3.1 N 9 9 5 5 - - -
10/10:00pm 12.2 10.2 7.1 71 2.7 N 7 11 4 6 - - -
10/09:30pm 7.3 4.9 7.2 99 0.1 ENE 9 15 5 8 - - -
10/09:00pm 8.4 5.7 7.3 93 0.6 E 11 15 6 8 - - -
10/08:30pm 10.0 7.7 7.4 84 1.4 E 9 13 5 7 - - -
10/08:00pm 11.4 9.1 7.5 77 2.1 ESE 9 13 5 7 - - -
10/07:30pm 13.1 11.5 8.8 75 2.4 SSE 7 9 4 5 - - -
10/07:00pm 14.0 12.4 8.8 71 2.9 S 7 11 4 6 - - -
10/06:30pm 14.7 11.4 9.5 71 2.9 S 17 22 9 12 - - -
10/06:00pm 15.2 12.0 10.0 71 3.0 S 17 24 9 13 - - -
10/05:30pm 16.3 13.0 9.5 64 3.9 S 17 26 9 14 - - -
10/05:00pm 16.7 14.9 9.4 62 4.2 S 9 19 5 10 - - -
10/04:30pm 18.6 16.0 10.7 60 4.7 WSW 15 32 8 17 - - -
10/04:00pm 19.0 14.6 4.7 39 7.6 NW 17 28 9 15 - - -
10/03:30pm 19.6 14.0 5.3 39 7.7 WNW 24 37 13 20 - - -
10/03:00pm 20.1 15.0 6.1 40 7.7 WNW 22 41 12 22 - - -
10/02:30pm 19.9 14.5 6.3 41 7.5 NW 24 33 13 18 - - -
10/02:00pm 20.1 14.8 5.0 37 8.1 NW 22 37 12 20 - - -
10/01:30pm 19.5 13.4 4.8 38 7.8 NW 26 43 14 23 - - -
10/01:00pm 19.8 15.1 6.2 41 7.5 NW 20 41 11 22 - - -
10/12:30pm 18.8 13.6 5.3 41 7.2 WNW 22 39 12 21 - - -
10/12:00pm 19.2 14.2 6.3 43 7.1 NW 22 37 12 20 - - -
10/11:30am 18.8 13.4 6.3 44 6.8 NW 24 37 13 20 - - -
10/11:00am 17.9 12.3 5.2 43 6.8 NW 24 37 13 20 - - -
10/10:30am 17.8 12.2 5.4 44 6.6 NW 24 35 13 19 - - -
10/10:00am 17.6 12.6 3.5 39 7.3 NW 19 32 10 17 - - -
10/09:30am 17.3 12.0 2.1 36 7.6 NNW 19 32 10 17 - - -
10/09:00am 16.9 11.7 2.5 38 7.2 NNW 19 30 10 16 - - -
10/08:30am 17.3 11.6 0.5 32 8.1 NNW 20 28 11 15 - - -
10/08:00am 16.5 10.7 -0.2 32 7.9 N 20 28 11 15 - - -
10/07:30am 15.3 9.9 1.1 38 6.9 NNW 19 28 10 15 - - -
10/07:00am 15.3 9.6 0.7 37 7.0 NNW 20 28 11 15 - - -
10/06:30am 15.2 8.4 0.6 37 7.0 NNW 26 35 14 19 - - -
10/06:00am 15.4 9.3 0.4 36 7.1 NNW 22 32 12 17 - - -
10/05:30am 15.4 8.5 0.0 35 7.3 NNW 26 35 14 19 - - -
10/05:00am 15.8 8.4 -0.4 33 7.6 N 28 35 15 19 - - -
10/04:30am 16.5 9.0 -1.1 30 8.2 NNW 28 37 15 20 - - -
10/04:00am 16.7 9.1 -1.9 28 8.5 N 28 37 15 20 - - -
10/03:30am 17.3 8.9 -2.4 26 9.0 NNW 32 44 17 24 - - -
10/03:00am 17.2 8.6 -2.4 26 8.9 NNW 33 52 18 28 - - -
10/02:35am 16.9 8.5 -2.2 27 8.7 NNW 32 50 17 27 - - -
10/02:30am 17.1 8.6 -2.0 27 8.8 NNW 33 46 18 25 - - -
10/02:00am 17.0 8.1 -2.1 27 8.7 N 35 50 19 27 - - -
10/01:56am 16.7 8.4 -1.9 28 8.5 N 32 50 17 27 - - -
10/01:30am 16.3 8.4 -1.7 29 8.3 N 30 43 16 23 - - -
10/01:00am 16.7 8.8 -1.9 28 8.5 N 30 39 16 21 - - -
10/12:30am 16.4 9.3 -1.2 30 8.2 N 26 32 14 17 - - -
10/12:00am 16.5 9.7 -1.6 29 8.3 N 24 35 13 19 - - -
 
Date/Time
EDT
Temp
°C
App
Temp
°C
Dew
Point
°C
Rel
Hum
%
Delta-T
°C
Wind Press
QNH
hPa
Press
MSL
hPa
Rain since
9am
mm
Dir  Spd
km/h
Gust
km/h
Spd
kts
Gust
kts
09/11:30pm 16.5 9.9 -0.7 31 8.1 N 24 30 13 16 - - -
09/11:00pm 15.8 9.6 0.0 34 7.5 N 22 28 12 15 - - -
09/10:30pm 15.8 10.2 0.0 34 7.5 N 19 22 10 12 - - -
09/10:00pm 15.7 10.2 0.3 35 7.3 NNW 19 22 10 12 - - -
09/09:30pm 15.9 10.3 0.9 36 7.2 NNW 20 26 11 14 - - -
09/09:00pm 15.4 10.7 2.9 43 6.3 N 17 19 9 10 - - -
09/08:30pm 15.4 11.4 2.6 42 6.4 NNW 13 15 7 8 - - -
09/08:00pm 15.8 11.4 2.6 41 6.6 NW 15 17 8 9 - - -
09/07:30pm 16.6 12.5 2.2 38 7.2 NW 13 17 7 9 - - -
09/07:00pm 17.5 12.6 1.9 35 7.8 WNW 17 24 9 13 - - -
09/06:30pm 18.4 13.6 2.7 35 8.0 WNW 17 24 9 13 - - -
09/06:00pm 18.7 13.8 2.1 33 8.4 WNW 17 26 9 14 - - -
09/05:30pm 19.3 14.7 3.9 36 8.1 WNW 17 26 9 14 - - -
09/05:00pm 18.5 13.7 2.4 34 8.2 W 17 26 9 14 - - -

Other formats

Comma delimited format used in spreadsheet applications
http://www.bom.gov.au/fwo/IDV60801/IDV60801.94906.axf

JavaScript Object Notation format (JSON) in row-major order
http://www.bom.gov.au/fwo/IDV60801/IDV60801.94906.json

Data quality

Most of these data are generated automatically and are frequently updated. Quality checks on data are not normally performed. It is possible for incorrect values to appear. Refer to information at About Latest Weather Observations and please check the disclaimer before using these data.